createdAt,value
2019-02-25T00:00:13.692Z,42.80
2019-02-25T00:01:13.683Z,43.21
2019-02-25T00:02:13.682Z,42.49
2019-02-25T00:03:13.660Z,42.90
2019-02-25T00:04:13.650Z,43.10
2019-02-25T00:05:13.639Z,43.01
2019-02-25T00:06:13.627Z,42.80
2019-02-25T00:07:13.695Z,43.21
2019-02-25T00:08:13.601Z,43.10
2019-02-25T00:09:13.588Z,43.52
2019-02-25T00:10:15.368Z,43.52
2019-02-25T00:11:13.571Z,43.31
2019-02-25T00:12:13.556Z,43.41
2019-02-25T00:13:13.561Z,43.83
2019-02-25T00:14:13.539Z,43.73
2019-02-25T00:15:13.530Z,43.83
2019-02-25T00:16:13.519Z,44.14
2019-02-25T00:17:13.511Z,44.14
2019-02-25T00:18:13.537Z,43.83
2019-02-25T00:19:13.486Z,43.52
2019-02-25T00:20:13.469Z,43.13
2019-02-25T00:21:13.465Z,43.10
2019-02-25T00:22:13.453Z,44.14
2019-02-25T00:23:13.457Z,44.47
2019-02-25T00:24:13.428Z,44.06
2019-02-25T00:25:13.418Z,44.16
2019-02-25T00:26:13.404Z,43.85
2019-02-25T00:27:13.395Z,44.06
2019-02-25T00:28:13.392Z,44.26
2019-02-25T00:29:13.387Z,44.47
2019-02-25T00:30:13.367Z,44.37
2019-02-25T00:31:13.359Z,44.26
2019-02-25T00:32:13.341Z,44.68
2019-02-25T00:33:13.371Z,44.57
2019-02-25T00:34:13.322Z,44.37
2019-02-25T00:35:13.340Z,44.16
2019-02-25T00:36:13.301Z,44.96
2019-02-25T00:37:13.291Z,44.35
2019-02-25T00:38:13.288Z,44.57
2019-02-25T00:39:13.308Z,44.78
2019-02-25T00:40:13.289Z,44.76
2019-02-25T00:41:13.243Z,45.40
2019-02-25T00:42:13.231Z,45.09
2019-02-25T00:43:13.222Z,44.99
2019-02-25T00:44:13.215Z,44.16
2019-02-25T00:45:13.226Z,44.16
2019-02-25T00:46:13.196Z,44.99
2019-02-25T00:47:13.182Z,45.50
2019-02-25T00:48:13.169Z,45.53
2019-02-25T00:49:13.161Z,44.28
2019-02-25T00:50:13.147Z,44.70
2019-02-25T00:51:13.195Z,44.78
2019-02-25T00:52:13.123Z,45.53
2019-02-25T00:53:13.113Z,45.53
2019-02-25T00:54:13.109Z,45.32
2019-02-25T00:55:13.101Z,45.42
2019-02-25T00:56:13.083Z,45.84
2019-02-25T00:57:13.084Z,44.38
2019-02-25T00:58:13.056Z,44.80
2019-02-25T00:59:13.051Z,44.90
2019-02-25T01:00:13.037Z,45.32
2019-02-25T01:01:13.070Z,45.84
2019-02-25T01:02:13.021Z,45.32
2019-02-25T01:03:13.012Z,45.53
2019-02-25T01:04:12.993Z,45.11
2019-02-25T01:05:12.985Z,45.21
2019-02-25T01:06:12.984Z,45.96
2019-02-25T01:07:12.960Z,46.48
2019-02-25T01:08:12.959Z,45.94
2019-02-25T01:09:12.947Z,45.75
2019-02-25T01:10:12.933Z,45.63
2019-02-25T01:11:12.919Z,45.75
2019-02-25T01:12:12.951Z,45.94
2019-02-25T01:13:12.902Z,46.37
2019-02-25T01:14:12.898Z,46.58
2019-02-25T01:15:12.880Z,46.89
2019-02-25T01:16:12.864Z,46.37
2019-02-25T01:17:12.851Z,47.10
2019-02-25T01:18:12.858Z,46.79
2019-02-25T01:19:12.840Z,47.00
2019-02-25T01:20:12.823Z,46.89
2019-02-25T01:21:12.815Z,46.27
2019-02-25T01:22:12.805Z,47.22
2019-02-25T01:23:12.817Z,47.22
2019-02-25T01:24:12.777Z,47.43
2019-02-25T01:25:12.801Z,47.00
2019-02-25T01:26:12.755Z,47.12
2019-02-25T01:27:12.745Z,47.74
2019-02-25T01:28:12.769Z,47.31
2019-02-25T01:29:12.721Z,47.53
2019-02-25T01:30:12.716Z,46.48
2019-02-25T01:31:12.725Z,48.05
2019-02-25T01:32:12.692Z,47.85
2019-02-25T01:33:12.679Z,47.33
2019-02-25T01:34:12.678Z,47.74
2019-02-25T01:35:12.660Z,47.85
2019-02-25T01:36:12.647Z,47.85
2019-02-25T01:37:12.642Z,46.91
2019-02-25T01:38:12.629Z,47.12
2019-02-25T01:39:12.709Z,46.81
2019-02-25T01:40:12.609Z,47.74
2019-02-25T01:41:12.599Z,47.43
2019-02-25T01:42:12.588Z,47.02
2019-02-25T01:43:12.572Z,47.12
2019-02-25T01:44:12.562Z,47.33
2019-02-25T01:45:12.595Z,48.05
2019-02-25T01:46:12.545Z,47.74
2019-02-25T01:47:12.533Z,47.43
2019-02-25T01:48:12.522Z,47.64
2019-02-25T01:49:12.506Z,47.53
2019-02-25T01:50:12.543Z,47.12
2019-02-25T01:51:12.492Z,47.33
2019-02-25T01:52:12.475Z,48.05
2019-02-25T01:53:12.464Z,47.64
2019-02-25T01:54:12.453Z,47.85
2019-02-25T01:55:12.448Z,47.64
2019-02-25T01:56:12.446Z,48.05
2019-02-25T01:57:12.428Z,48.26
2019-02-25T01:58:12.410Z,48.26
2019-02-25T01:59:12.405Z,48.47
2019-02-25T02:00:12.407Z,48.26
2019-02-25T02:01:12.390Z,48.26
2019-02-25T02:02:12.451Z,48.47
2019-02-25T02:03:12.373Z,48.47
2019-02-25T02:04:12.345Z,48.26
2019-02-25T02:05:12.338Z,48.57
2019-02-25T02:06:12.324Z,48.88
2019-02-25T02:07:12.313Z,48.88
2019-02-25T02:08:12.319Z,49.30
2019-02-25T02:09:12.291Z,49.40
2019-02-25T02:10:12.279Z,48.69
2019-02-25T02:11:12.312Z,48.68
2019-02-25T02:12:12.271Z,49.91
2019-02-25T02:13:14.471Z,50.02
2019-02-25T02:14:12.240Z,49.40
2019-02-25T02:15:12.228Z,49.84
2019-02-25T02:16:12.214Z,50.02
2019-02-25T02:17:12.247Z,49.81
2019-02-25T02:18:12.224Z,49.91
2019-02-25T02:19:12.185Z,50.04
2019-02-25T02:20:12.171Z,50.33
2019-02-25T02:21:12.159Z,50.54
2019-02-25T02:22:12.158Z,50.33
2019-02-25T02:23:12.197Z,49.94
2019-02-25T02:24:12.132Z,50.46
2019-02-25T02:25:12.115Z,50.64
2019-02-25T02:26:12.109Z,50.46
2019-02-25T02:27:12.098Z,51.08
2019-02-25T02:28:12.089Z,50.87
2019-02-25T02:29:12.103Z,51.16
2019-02-25T02:30:12.067Z,51.08
2019-02-25T02:31:12.061Z,51.18
2019-02-25T02:32:12.045Z,50.67
2019-02-25T02:33:12.045Z,50.87
2019-02-25T02:34:12.023Z,51.29
2019-02-25T02:35:12.009Z,50.87
2019-02-25T02:36:12.038Z,51.08
2019-02-25T02:37:11.993Z,51.18
2019-02-25T02:38:11.978Z,51.29
2019-02-25T02:39:11.962Z,50.67
2019-02-25T02:40:11.951Z,51.08
2019-02-25T02:41:11.980Z,50.25
2019-02-25T02:42:11.968Z,50.25
2019-02-25T02:43:11.924Z,50.35
2019-02-25T02:44:11.908Z,49.94
2019-02-25T02:45:11.901Z,50.46
2019-02-25T02:46:11.892Z,50.77
2019-02-25T02:47:11.876Z,51.08
2019-02-25T02:48:11.881Z,51.29
2019-02-25T02:49:11.853Z,50.56
2019-02-25T02:50:11.846Z,50.67
2019-02-25T02:51:11.837Z,51.08
2019-02-25T02:52:11.824Z,51.18
2019-02-25T02:53:11.844Z,51.00
2019-02-25T02:54:11.805Z,51.81
2019-02-25T02:55:11.794Z,50.69
2019-02-25T02:56:11.821Z,50.79
2019-02-25T02:57:11.771Z,50.87
2019-02-25T02:58:11.766Z,50.90
2019-02-25T02:59:11.804Z,50.79
2019-02-25T03:00:11.738Z,51.10
2019-02-25T03:01:11.722Z,50.69
2019-02-25T03:02:11.717Z,51.31
2019-02-25T03:03:11.712Z,51.10
2019-02-25T03:04:11.690Z,51.31
2019-02-25T03:05:11.709Z,50.79
2019-02-25T03:06:11.674Z,52.14
2019-02-25T03:07:11.656Z,51.93
2019-02-25T03:08:11.648Z,52.04
2019-02-25T03:09:11.664Z,52.04
2019-02-25T03:10:11.633Z,52.04
2019-02-25T03:11:11.621Z,52.76
2019-02-25T03:12:11.606Z,52.87
2019-02-25T03:13:11.599Z,52.48
2019-02-25T03:14:11.587Z,52.04
2019-02-25T03:15:11.574Z,52.06
2019-02-25T03:16:11.559Z,52.27
2019-02-25T03:17:11.549Z,52.04
2019-02-25T03:18:11.592Z,52.14
2019-02-25T03:19:11.532Z,52.17
2019-02-25T03:20:11.530Z,52.25
2019-02-25T03:21:11.509Z,52.27
2019-02-25T03:22:11.497Z,52.27
2019-02-25T03:23:11.483Z,52.25
2019-02-25T03:24:11.500Z,51.93
2019-02-25T03:25:11.463Z,52.66
2019-02-25T03:26:11.449Z,53.10
2019-02-25T03:27:11.436Z,52.79
2019-02-25T03:28:11.469Z,52.45
2019-02-25T03:29:11.419Z,52.48
2019-02-25T03:30:11.412Z,52.27
2019-02-25T03:31:11.403Z,53.20
2019-02-25T03:32:11.389Z,53.00
2019-02-25T03:33:11.372Z,52.58
2019-02-25T03:34:11.403Z,52.79
2019-02-25T03:35:11.354Z,52.79
2019-02-25T03:36:11.341Z,52.79
2019-02-25T03:37:11.332Z,52.37
2019-02-25T03:38:11.324Z,52.69
2019-02-25T03:39:11.306Z,52.89
2019-02-25T03:40:11.362Z,52.58
2019-02-25T03:41:11.289Z,52.48
2019-02-25T03:42:11.273Z,52.87
2019-02-25T03:43:11.263Z,52.56
2019-02-25T03:44:11.250Z,52.87
2019-02-25T03:45:11.268Z,53.17
2019-02-25T03:46:11.262Z,52.45
2019-02-25T03:47:11.224Z,52.69
2019-02-25T03:48:11.209Z,52.37
2019-02-25T03:49:11.234Z,52.48
2019-02-25T03:50:11.189Z,53.17
2019-02-25T03:51:11.186Z,53.30
2019-02-25T03:52:11.164Z,53.00
2019-02-25T03:53:11.154Z,53.61
2019-02-25T03:54:11.176Z,54.24
2019-02-25T03:55:11.138Z,53.72
2019-02-25T03:56:11.183Z,53.61
2019-02-25T03:57:11.122Z,54.03
2019-02-25T03:58:11.104Z,54.13
2019-02-25T03:59:11.094Z,53.72
2019-02-25T04:00:11.082Z,54.03
2019-02-25T04:01:11.070Z,53.82
2019-02-25T04:02:11.085Z,54.03
2019-02-25T04:03:11.049Z,54.13
2019-02-25T04:04:11.032Z,53.72
2019-02-25T04:05:11.037Z,54.44
2019-02-25T04:06:11.050Z,54.44
2019-02-25T04:07:11.002Z,53.72
2019-02-25T04:08:11.066Z,54.24
2019-02-25T04:09:10.988Z,53.82
2019-02-25T04:10:10.977Z,53.61
2019-02-25T04:11:10.960Z,54.03
2019-02-25T04:12:10.951Z,54.44
2019-02-25T04:13:10.939Z,54.24
2019-02-25T04:14:10.939Z,54.24
2019-02-25T04:15:10.920Z,54.24
2019-02-25T04:16:10.904Z,54.96
2019-02-25T04:17:10.897Z,54.34
2019-02-25T04:18:10.890Z,54.34
2019-02-25T04:19:10.901Z,54.55
2019-02-25T04:20:10.858Z,54.55
2019-02-25T04:21:10.856Z,54.75
2019-02-25T04:22:10.835Z,54.44
2019-02-25T04:23:10.824Z,54.75
2019-02-25T04:24:10.815Z,54.24
2019-02-25T04:25:10.808Z,54.55
2019-02-25T04:26:10.884Z,54.65
2019-02-25T04:27:10.787Z,54.13
2019-02-25T04:28:10.776Z,54.13
2019-02-25T04:29:10.767Z,54.55
2019-02-25T04:30:10.755Z,54.34
2019-02-25T04:31:10.743Z,54.65
2019-02-25T04:32:10.756Z,54.55
2019-02-25T04:33:10.722Z,54.03
2019-02-25T04:34:10.714Z,54.96
2019-02-25T04:35:10.699Z,55.69
2019-02-25T04:36:10.769Z,55.27
2019-02-25T04:37:10.678Z,55.07
2019-02-25T04:38:10.671Z,54.96
2019-02-25T04:39:10.654Z,55.27
2019-02-25T04:40:10.669Z,55.17
2019-02-25T04:41:10.633Z,55.69
2019-02-25T04:42:10.618Z,54.65
2019-02-25T04:43:10.668Z,54.65
2019-02-25T04:44:10.596Z,55.17
2019-02-25T04:45:10.584Z,55.07
2019-02-25T04:46:10.575Z,54.96
2019-02-25T04:47:10.569Z,55.38
2019-02-25T04:48:10.570Z,55.30
2019-02-25T04:49:10.606Z,56.31
2019-02-25T04:50:10.538Z,55.79
2019-02-25T04:51:10.519Z,55.38
2019-02-25T04:52:10.509Z,55.79
2019-02-25T04:53:10.499Z,55.72
2019-02-25T04:54:10.493Z,55.62
2019-02-25T04:55:10.509Z,55.79
2019-02-25T04:56:10.471Z,55.41
2019-02-25T04:57:10.463Z,55.51
2019-02-25T04:58:10.444Z,56.03
2019-02-25T04:59:10.432Z,56.13
2019-02-25T05:00:10.507Z,56.34
2019-02-25T05:01:10.415Z,56.65
2019-02-25T05:02:10.402Z,57.07
2019-02-25T05:03:10.388Z,56.86
2019-02-25T05:04:10.394Z,56.86
2019-02-25T05:05:10.373Z,57.07
2019-02-25T05:06:10.403Z,57.07
2019-02-25T05:07:10.346Z,56.55
2019-02-25T05:08:10.340Z,57.07
2019-02-25T05:09:10.326Z,57.82
2019-02-25T05:10:10.313Z,57.51
2019-02-25T05:11:10.309Z,57.61
2019-02-25T05:12:10.355Z,58.03
2019-02-25T05:13:10.280Z,57.61
2019-02-25T05:14:10.270Z,57.69
2019-02-25T05:15:10.269Z,57.38
2019-02-25T05:16:10.252Z,58.00
2019-02-25T05:17:10.246Z,58.00
2019-02-25T05:18:10.269Z,57.79
2019-02-25T05:19:10.214Z,57.48
2019-02-25T05:20:10.207Z,56.76
2019-02-25T05:21:10.199Z,56.96
2019-02-25T05:22:10.188Z,56.65
2019-02-25T05:23:10.202Z,56.88
2019-02-25T05:24:10.165Z,57.38
2019-02-25T05:25:10.153Z,57.51
2019-02-25T05:26:10.140Z,58.54
2019-02-25T05:27:10.132Z,57.90
2019-02-25T05:28:10.158Z,58.23
2019-02-25T05:29:10.115Z,58.52
2019-02-25T05:30:10.103Z,58.21
2019-02-25T05:31:10.089Z,57.69
2019-02-25T05:32:10.092Z,57.82
2019-02-25T05:33:10.081Z,57.69
2019-02-25T05:34:10.051Z,57.82
2019-02-25T05:35:10.040Z,57.92
2019-02-25T05:36:10.086Z,58.13
2019-02-25T05:37:10.025Z,58.44
2019-02-25T05:38:10.012Z,58.03
2019-02-25T05:39:10.092Z,58.23
2019-02-25T05:40:09.994Z,58.42
2019-02-25T05:41:09.974Z,58.34
2019-02-25T05:42:10.026Z,57.82
2019-02-25T05:43:09.963Z,57.90
2019-02-25T05:44:09.962Z,58.44
2019-02-25T05:45:09.939Z,57.82
2019-02-25T05:46:09.941Z,58.52
2019-02-25T05:47:09.912Z,58.96
2019-02-25T05:48:09.918Z,58.75
2019-02-25T05:49:09.894Z,58.96
2019-02-25T05:50:09.922Z,59.27
2019-02-25T05:51:09.877Z,59.17
2019-02-25T05:52:09.855Z,58.96
2019-02-25T05:53:09.851Z,59.17
2019-02-25T05:54:09.855Z,59.06
2019-02-25T05:55:09.830Z,58.78
2019-02-25T05:56:09.842Z,58.96
2019-02-25T05:57:09.809Z,59.79
2019-02-25T05:58:09.804Z,59.82
2019-02-25T05:59:09.784Z,59.50
2019-02-25T06:00:09.769Z,59.40
2019-02-25T06:01:09.802Z,59.19
2019-02-25T06:02:09.747Z,60.55
2019-02-25T06:03:09.748Z,60.03
2019-02-25T06:04:09.731Z,60.34
2019-02-25T06:05:09.717Z,60.55
2019-02-25T06:06:09.786Z,59.61
2019-02-25T06:07:10.480Z,60.34
2019-02-25T06:08:09.689Z,60.24
2019-02-25T06:09:09.673Z,60.13
2019-02-25T06:10:09.664Z,60.34
2019-02-25T06:11:09.648Z,59.82
2019-02-25T06:12:09.672Z,59.40
2019-02-25T06:13:09.644Z,59.50
2019-02-25T06:14:09.625Z,59.92
2019-02-25T06:15:09.612Z,59.82
2019-02-25T06:16:09.594Z,59.61
2019-02-25T06:17:09.643Z,59.40
2019-02-25T06:18:09.578Z,60.03
2019-02-25T06:19:09.563Z,59.61
2019-02-25T06:20:09.561Z,59.61
2019-02-25T06:21:09.546Z,60.05
2019-02-25T06:22:16.580Z,59.09
2019-02-25T06:23:09.537Z,59.61
2019-02-25T06:24:09.506Z,59.71
2019-02-25T06:25:09.497Z,59.82
2019-02-25T06:26:09.493Z,59.71
2019-02-25T06:27:09.483Z,59.71
2019-02-25T06:28:09.508Z,60.55
2019-02-25T06:29:09.452Z,59.40
2019-02-25T06:30:09.445Z,59.71
2019-02-25T06:31:09.430Z,59.92
2019-02-25T06:32:09.448Z,59.82
2019-02-25T06:33:09.445Z,59.61
2019-02-25T06:34:09.431Z,59.89
2019-02-25T06:35:09.426Z,59.27
2019-02-25T06:36:09.381Z,59.19
2019-02-25T06:37:09.367Z,58.96
2019-02-25T06:38:09.359Z,59.38
2019-02-25T06:39:09.391Z,58.67
2019-02-25T06:40:09.337Z,59.06
2019-02-25T06:41:09.329Z,59.17
2019-02-25T06:42:09.370Z,59.09
2019-02-25T06:43:09.343Z,58.98
2019-02-25T06:44:09.295Z,59.27
2019-02-25T06:45:09.288Z,58.96
2019-02-25T06:46:09.275Z,59.19
2019-02-25T06:47:09.261Z,59.06
2019-02-25T06:48:09.291Z,59.27
2019-02-25T06:49:09.250Z,58.96
2019-02-25T06:50:09.222Z,58.96
2019-02-25T06:51:09.218Z,58.65
2019-02-25T06:52:09.205Z,58.44
2019-02-25T06:53:09.200Z,58.23
2019-02-25T06:54:09.184Z,57.90
2019-02-25T06:55:09.174Z,58.73
2019-02-25T06:56:09.157Z,58.73
2019-02-25T06:57:09.303Z,57.79
2019-02-25T06:58:09.157Z,57.90
2019-02-25T06:59:09.124Z,58.11
2019-02-25T07:00:09.118Z,57.69
2019-02-25T07:01:09.111Z,58.42
2019-02-25T07:02:09.093Z,58.11
2019-02-25T07:03:09.080Z,57.90
2019-02-25T07:04:09.073Z,58.21
2019-02-25T07:05:09.121Z,58.00
2019-02-25T07:06:09.065Z,58.11
2019-02-25T07:07:09.038Z,57.76
2019-02-25T07:08:09.033Z,58.00
2019-02-25T07:09:09.015Z,58.18
2019-02-25T07:10:09.011Z,57.48
2019-02-25T07:11:09.039Z,57.35
2019-02-25T07:12:08.988Z,57.45
2019-02-25T07:13:08.978Z,58.80
2019-02-25T07:14:08.970Z,58.49
2019-02-25T07:15:08.956Z,58.39
2019-02-25T07:16:08.984Z,57.97
2019-02-25T07:17:08.934Z,58.18
2019-02-25T07:18:08.921Z,57.76
2019-02-25T07:19:09.480Z,57.45
2019-02-25T07:20:08.897Z,57.24
2019-02-25T07:21:08.926Z,57.66
2019-02-25T07:22:08.881Z,57.66
2019-02-25T07:23:08.867Z,57.24
2019-02-25T07:24:08.858Z,57.43
2019-02-25T07:25:08.840Z,57.43
2019-02-25T07:26:08.842Z,57.43
2019-02-25T07:27:08.828Z,57.84
2019-02-25T07:28:08.817Z,57.95
2019-02-25T07:29:08.796Z,57.43
2019-02-25T07:30:08.802Z,56.99
2019-02-25T07:31:08.781Z,57.20
2019-02-25T07:32:08.784Z,57.09
2019-02-25T07:33:08.759Z,56.88
2019-02-25T07:34:08.747Z,56.78
2019-02-25T07:35:08.733Z,56.16
2019-02-25T07:36:08.734Z,56.26
2019-02-25T07:37:08.719Z,56.37
2019-02-25T07:38:08.705Z,55.85
2019-02-25T07:39:08.709Z,55.43
2019-02-25T07:40:08.686Z,55.72
2019-02-25T07:41:08.679Z,55.82
2019-02-25T07:42:08.654Z,55.62
2019-02-25T07:43:08.658Z,55.10
2019-02-25T07:44:08.643Z,55.51
2019-02-25T07:45:08.626Z,55.20
2019-02-25T07:46:08.617Z,54.99
2019-02-25T07:47:08.603Z,55.20
2019-02-25T07:48:08.624Z,54.97
2019-02-25T07:49:08.585Z,54.86
2019-02-25T07:50:08.576Z,54.86
2019-02-25T07:51:08.561Z,54.86
2019-02-25T07:52:08.550Z,54.86
2019-02-25T07:53:08.540Z,54.76
2019-02-25T07:54:08.543Z,54.43
2019-02-25T07:55:08.517Z,53.39
2019-02-25T07:56:08.512Z,53.91
2019-02-25T07:57:08.498Z,53.91
2019-02-25T07:58:08.487Z,53.88
2019-02-25T07:59:08.512Z,53.47
2019-02-25T08:00:08.466Z,52.75
2019-02-25T08:01:08.448Z,53.16
2019-02-25T08:02:08.442Z,53.26
2019-02-25T08:03:08.431Z,53.26
2019-02-25T08:04:08.416Z,53.05
2019-02-25T08:05:08.461Z,52.85
2019-02-25T08:06:08.399Z,52.75
2019-02-25T08:07:08.385Z,52.83
2019-02-25T08:08:08.378Z,52.75
2019-02-25T08:09:08.366Z,53.23
2019-02-25T08:10:08.354Z,53.13
2019-02-25T08:11:08.387Z,52.31
2019-02-25T08:12:08.338Z,52.20
2019-02-25T08:13:08.321Z,52.93
2019-02-25T08:14:08.309Z,52.49
2019-02-25T08:15:09.113Z,52.70
2019-02-25T08:16:08.291Z,52.41
2019-02-25T08:17:08.282Z,52.70
2019-02-25T08:18:08.265Z,52.49
2019-02-25T08:19:08.260Z,52.49
2019-02-25T08:20:08.242Z,52.15
2019-02-25T08:21:08.281Z,51.87
2019-02-25T08:22:08.225Z,51.66
2019-02-25T08:23:08.214Z,51.95
2019-02-25T08:24:08.206Z,52.05
2019-02-25T08:25:08.203Z,51.84
2019-02-25T08:26:08.179Z,51.95
2019-02-25T08:27:08.211Z,51.23
2019-02-25T08:28:08.159Z,51.74
2019-02-25T08:29:08.147Z,51.33
2019-02-25T08:30:08.132Z,51.95
2019-02-25T08:31:09.274Z,51.72
2019-02-25T08:32:08.110Z,50.79
2019-02-25T08:33:08.104Z,50.99
2019-02-25T08:34:08.089Z,50.25
2019-02-25T08:35:08.100Z,50.76
2019-02-25T08:36:08.071Z,50.76
2019-02-25T08:37:08.101Z,50.46
2019-02-25T08:38:08.049Z,49.73
2019-02-25T08:39:08.039Z,49.71
2019-02-25T08:40:08.028Z,49.79
2019-02-25T08:41:08.041Z,48.63
2019-02-25T08:42:08.001Z,48.41
2019-02-25T08:43:08.050Z,48.20
2019-02-25T08:44:07.996Z,47.35
2019-02-25T08:45:07.967Z,46.61
2019-02-25T08:46:07.963Z,46.92
2019-02-25T08:47:07.950Z,46.39
2019-02-25T08:48:08.017Z,46.47
2019-02-25T08:49:07.970Z,45.03
2019-02-25T08:50:07.912Z,45.62
2019-02-25T08:51:08.041Z,45.52
2019-02-25T08:52:07.897Z,44.98
2019-02-25T08:53:07.978Z,44.37
2019-02-25T08:54:07.870Z,44.14
2019-02-25T08:55:07.865Z,43.61
2019-02-25T08:56:07.855Z,43.63
2019-02-25T08:57:07.842Z,43.81
2019-02-25T08:58:07.833Z,42.69
2019-02-25T08:59:07.873Z,42.87
2019-02-25T09:00:07.808Z,42.25
2019-02-25T09:01:07.797Z,42.24
2019-02-25T09:02:07.786Z,42.03
2019-02-25T09:03:07.770Z,41.60
2019-02-25T09:04:07.763Z,40.99
2019-02-25T09:05:07.793Z,40.99
2019-02-25T09:06:07.748Z,41.60
2019-02-25T09:07:07.731Z,41.29
2019-02-25T09:08:07.723Z,40.99
2019-02-25T09:09:07.736Z,41.07
2019-02-25T09:10:07.744Z,40.54
2019-02-25T09:11:13.897Z,40.42
2019-02-25T09:12:08.669Z,39.39
2019-02-25T09:13:07.662Z,39.60
2019-02-25T09:14:07.658Z,39.17
2019-02-25T09:15:07.639Z,39.28
2019-02-25T09:16:07.656Z,39.05
2019-02-25T09:17:07.619Z,38.93
2019-02-25T09:18:07.609Z,38.62
2019-02-25T09:19:07.594Z,38.52
2019-02-25T09:20:07.582Z,38.42
2019-02-25T09:21:08.242Z,38.50
2019-02-25T09:22:07.590Z,37.89
2019-02-25T09:23:07.553Z,38.59
2019-02-25T09:24:07.547Z,39.10
2019-02-25T09:25:07.534Z,38.48
2019-02-25T09:26:07.522Z,38.89
2019-02-25T09:27:07.523Z,38.48
2019-02-25T09:28:07.518Z,38.16
2019-02-25T09:29:07.489Z,38.37
2019-02-25T09:30:07.489Z,37.53
2019-02-25T09:31:07.461Z,37.74
2019-02-25T09:32:07.464Z,37.33
2019-02-25T09:33:07.509Z,37.53
2019-02-25T09:34:07.435Z,37.63
2019-02-25T09:35:07.418Z,37.74
2019-02-25T09:36:07.412Z,37.72
2019-02-25T09:37:07.406Z,37.41
2019-02-25T09:38:07.429Z,36.79
2019-02-25T09:39:07.520Z,36.58
2019-02-25T09:40:07.502Z,37.01
2019-02-25T09:41:07.381Z,36.90
2019-02-25T09:42:07.341Z,37.80
2019-02-25T09:43:07.335Z,37.80
2019-02-25T09:44:07.321Z,37.70
2019-02-25T09:45:07.396Z,37.40
2019-02-25T09:46:07.303Z,37.70
2019-02-25T09:47:07.291Z,37.27
2019-02-25T09:48:07.282Z,37.17
2019-02-25T09:49:07.288Z,37.16
2019-02-25T09:50:07.255Z,36.75
2019-02-25T09:51:07.287Z,36.95
2019-02-25T09:52:07.261Z,36.95
2019-02-25T09:53:07.474Z,37.14
2019-02-25T09:54:07.216Z,36.83
2019-02-25T09:55:07.238Z,37.14
2019-02-25T09:56:07.218Z,37.54
2019-02-25T09:57:07.178Z,37.34
2019-02-25T09:58:07.174Z,37.24
2019-02-25T09:59:07.196Z,37.75
2019-02-25T10:00:07.144Z,37.02
2019-02-25T10:01:07.164Z,37.32
2019-02-25T10:02:07.185Z,37.71
2019-02-25T10:03:07.118Z,36.88
2019-02-25T10:04:08.713Z,36.07
2019-02-25T10:05:07.089Z,36.25
2019-02-25T10:06:07.084Z,36.16
2019-02-25T10:07:07.127Z,35.53
2019-02-25T10:08:07.062Z,36.16
2019-02-25T10:09:07.044Z,36.76
2019-02-25T10:10:07.040Z,37.17
2019-02-25T10:11:07.065Z,36.85
2019-02-25T10:12:07.017Z,36.44
2019-02-25T10:13:07.044Z,36.12
2019-02-25T10:14:06.992Z,36.10
2019-02-25T10:15:06.984Z,35.88
2019-02-25T10:16:06.981Z,36.21
2019-02-25T10:17:06.966Z,35.68
2019-02-25T10:18:06.991Z,36.30
2019-02-25T10:19:06.939Z,36.08
2019-02-25T10:20:06.933Z,36.91
2019-02-25T10:21:06.913Z,36.51
2019-02-25T10:22:06.946Z,37.32
2019-02-25T10:23:06.950Z,37.02
2019-02-25T10:24:06.884Z,36.82
2019-02-25T10:25:06.876Z,37.02
2019-02-25T10:26:06.860Z,37.12
2019-02-25T10:27:06.853Z,37.42
2019-02-25T10:28:06.843Z,36.49
2019-02-25T10:29:06.871Z,36.39
2019-02-25T10:30:06.814Z,36.07
2019-02-25T10:31:06.817Z,35.99
2019-02-25T10:32:06.803Z,36.47
2019-02-25T10:33:06.787Z,35.65
2019-02-25T10:34:07.662Z,35.55
2019-02-25T10:35:06.765Z,36.36
2019-02-25T10:36:06.755Z,35.11
2019-02-25T10:37:06.738Z,35.01
2019-02-25T10:38:06.730Z,34.79
2019-02-25T10:39:08.588Z,34.97
2019-02-25T10:40:06.790Z,34.67
2019-02-25T10:41:06.700Z,34.97
2019-02-25T10:42:06.689Z,35.08
2019-02-25T10:43:06.676Z,34.97
2019-02-25T10:44:08.503Z,34.97
2019-02-25T10:45:07.246Z,34.67
2019-02-25T10:46:07.116Z,34.45
2019-02-25T10:47:06.631Z,34.45
2019-02-25T10:48:06.617Z,34.03
2019-02-25T10:49:11.662Z,34.03
2019-02-25T10:50:07.597Z,33.51
2019-02-25T10:51:07.651Z,34.54
2019-02-25T10:52:08.669Z,34.72
2019-02-25T10:53:06.571Z,33.59
2019-02-25T10:54:06.557Z,33.18
2019-02-25T10:55:06.540Z,32.66
2019-02-25T10:56:06.601Z,32.56
2019-02-25T10:57:06.527Z,32.15
2019-02-25T10:58:06.513Z,32.63
2019-02-25T10:59:08.098Z,30.90
2019-02-25T11:00:07.407Z,31.71
2019-02-25T11:01:08.458Z,32.21
2019-02-25T11:02:09.101Z,32.29
2019-02-25T11:03:06.579Z,31.39
2019-02-25T11:04:06.441Z,30.79
2019-02-25T11:05:06.430Z,31.71
2019-02-25T11:06:06.424Z,31.30
2019-02-25T11:07:07.850Z,31.49
2019-02-25T11:08:07.409Z,31.39
2019-02-25T11:09:06.955Z,32.09
2019-02-25T11:10:06.381Z,32.61
2019-02-25T11:11:06.372Z,32.20
2019-02-25T11:12:06.400Z,31.26
2019-02-25T11:13:06.454Z,31.36
2019-02-25T11:14:07.263Z,31.54
2019-02-25T11:15:07.372Z,31.26
2019-02-25T11:16:06.312Z,32.58
2019-02-25T11:17:06.305Z,32.36
2019-02-25T11:18:06.292Z,31.54
2019-02-25T11:19:06.310Z,31.45
2019-02-25T11:20:06.268Z,31.54
2019-02-25T11:21:08.377Z,31.54
2019-02-25T11:22:08.461Z,31.03
2019-02-25T11:23:06.320Z,31.33
2019-02-25T11:24:06.256Z,31.33
2019-02-25T11:25:06.214Z,31.54
2019-02-25T11:26:06.211Z,31.54
2019-02-25T11:27:07.348Z,31.14
2019-02-25T11:28:07.638Z,31.12
2019-02-25T11:29:08.172Z,31.63
2019-02-25T11:30:06.166Z,31.31
2019-02-25T11:31:06.148Z,31.50
2019-02-25T11:32:06.144Z,30.38
2019-02-25T11:33:06.131Z,30.16
2019-02-25T11:34:07.986Z,30.65
2019-02-25T11:35:06.766Z,29.84
2019-02-25T11:36:06.099Z,29.62
2019-02-25T11:37:06.096Z,29.53
2019-02-25T11:38:06.077Z,30.45
2019-02-25T11:39:06.950Z,29.57
2019-02-25T11:40:06.050Z,30.38
2019-02-25T11:41:07.121Z,31.30
2019-02-25T11:42:07.908Z,31.50
2019-02-25T11:43:06.031Z,32.64
2019-02-25T11:44:06.013Z,32.15
2019-02-25T11:45:06.040Z,32.14
2019-02-25T11:46:05.993Z,32.23
2019-02-25T11:47:05.984Z,32.43
2019-02-25T11:48:05.964Z,32.12
2019-02-25T11:49:05.958Z,32.32
2019-02-25T11:50:05.987Z,32.32
2019-02-25T11:51:05.937Z,32.20
2019-02-25T11:52:05.927Z,32.60
2019-02-25T11:53:05.923Z,32.21
2019-02-25T11:54:05.906Z,32.10
2019-02-25T11:55:05.978Z,32.29
2019-02-25T11:56:05.878Z,32.29
2019-02-25T11:57:05.874Z,32.09
2019-02-25T11:58:05.860Z,32.70
2019-02-25T11:59:05.862Z,32.10
2019-02-25T12:00:05.849Z,32.90
2019-02-25T12:01:05.870Z,33.02
2019-02-25T12:02:05.827Z,33.64
2019-02-25T12:03:05.806Z,33.44
2019-02-25T12:04:05.798Z,33.52
2019-02-25T12:05:05.827Z,33.52
2019-02-25T12:06:05.770Z,33.84
2019-02-25T12:07:05.760Z,33.05
2019-02-25T12:08:05.750Z,33.34
2019-02-25T12:09:05.741Z,34.46
2019-02-25T12:10:05.775Z,33.86
2019-02-25T12:11:05.722Z,34.16
2019-02-25T12:12:05.754Z,34.98
2019-02-25T12:13:05.701Z,35.11
2019-02-25T12:14:05.686Z,36.11
2019-02-25T12:15:05.676Z,35.91
2019-02-25T12:16:05.704Z,35.73
2019-02-25T12:17:05.651Z,36.54
2019-02-25T12:18:05.686Z,36.96
2019-02-25T12:19:05.629Z,36.76
2019-02-25T12:20:05.625Z,37.14
2019-02-25T12:21:05.612Z,36.24
2019-02-25T12:22:05.682Z,36.22
2019-02-25T12:23:05.591Z,36.54
2019-02-25T12:24:05.576Z,36.94
2019-02-25T12:25:05.570Z,36.74
2019-02-25T12:26:05.556Z,36.42
2019-02-25T12:27:05.547Z,36.22
2019-02-25T12:28:05.562Z,36.84
2019-02-25T12:29:10.804Z,37.04
2019-02-25T12:30:06.508Z,37.26
2019-02-25T12:31:05.502Z,37.66
2019-02-25T12:32:05.485Z,37.04
2019-02-25T12:33:05.522Z,36.82
2019-02-25T12:34:05.464Z,37.24
2019-02-25T12:35:05.481Z,36.94
2019-02-25T12:36:05.446Z,37.04
2019-02-25T12:37:05.430Z,37.76
2019-02-25T12:38:05.502Z,37.16
2019-02-25T12:39:05.412Z,37.16
2019-02-25T12:40:05.397Z,37.46
2019-02-25T12:41:05.394Z,37.87
2019-02-25T12:42:05.381Z,38.08
2019-02-25T12:43:05.369Z,37.87
2019-02-25T12:44:05.419Z,37.88
2019-02-25T12:45:05.346Z,38.48
2019-02-25T12:46:05.338Z,38.50
2019-02-25T12:47:05.404Z,38.30
2019-02-25T12:48:05.313Z,38.91
2019-02-25T12:49:05.298Z,38.59
2019-02-25T12:50:05.292Z,39.11
2019-02-25T12:51:05.278Z,38.82
2019-02-25T12:52:05.268Z,39.85